Time;durP1;ratioP1;P1;durP2;ratioP2;P2;SDS_P1;SDS_P2;PMS_P1;PMS_P2;Temp;Humidity;BMP_temperature;BMP_pressure;BME280_temperature;BME280_humidity;BME280_pressure;Samples;Min_cycle;Max_cycle;Signal;HPM_P1;HPM_P2
2023/07/07 00:00:36;;;;;;;7.25;2.78;;;15.00;99.90;;;;;;5064680;28;20024;-56
2023/07/07 00:03:02;;;;;;;4.50;2.95;;;15.00;99.90;;;;;;5066189;28;20119;-55
2023/07/07 00:05:27;;;;;;;8.48;2.70;;;14.90;99.90;;;;;;5065635;28;20024;-56
2023/07/07 00:07:53;;;;;;;5.93;2.80;;;15.00;99.90;;;;;;5065891;28;20040;-56
2023/07/07 00:10:20;;;;;;;3.97;3.00;;;15.00;99.90;;;;;;5064589;28;20167;-56
2023/07/07 00:12:45;;;;;;;5.47;3.00;;;14.90;99.90;;;;;;5066182;28;20515;-56
2023/07/07 00:15:11;;;;;;;5.45;3.05;;;14.90;99.90;;;;;;5066735;28;20143;-55
2023/07/07 00:17:37;;;;;;;5.82;3.08;;;14.80;99.90;;;;;;5065722;28;20686;-56
2023/07/07 00:20:07;;;;;;;6.78;3.17;;;14.80;99.90;;;;;;5064628;28;20122;-56
2023/07/07 00:22:34;;;;;;;5.68;2.95;;;15.00;99.90;;;;;;5066029;28;20078;-56
2023/07/07 00:25:00;;;;;;;6.20;3.15;;;14.80;99.90;;;;;;5065550;28;20455;-56
2023/07/07 00:27:26;;;;;;;4.00;2.83;;;13.70;99.90;;;;;;5064988;28;20044;-56
2023/07/07 00:29:52;;;;;;;6.55;2.90;;;14.70;99.90;;;;;;5066514;28;20032;-56
2023/07/07 00:32:17;;;;;;;5.38;2.58;;;14.60;99.90;;;;;;5047976;28;20033;-56
2023/07/07 00:34:43;;;;;;;7.07;2.90;;;14.70;99.90;;;;;;5045188;28;20041;-56
2023/07/07 00:37:08;;;;;;;5.88;2.92;;;14.60;99.90;;;;;;5045206;28;20473;-55
2023/07/07 00:39:34;;;;;;;4.85;2.63;;;14.60;99.90;;;;;;5054802;28;20040;-55
2023/07/07 00:41:59;;;;;;;4.88;2.70;;;14.70;99.90;;;;;;5065566;28;20548;-56
2023/07/07 00:44:48;;;;;;;4.70;2.85;;;14.70;99.90;;;;;;5065357;28;20029;-56
2023/07/07 00:47:14;;;;;;;4.63;2.70;;;14.60;99.90;;;;;;5064586;28;20696;-55
2023/07/07 00:49:40;;;;;;;5.00;2.75;;;14.50;99.90;;;;;;5065690;28;20202;-56
2023/07/07 00:52:06;;;;;;;6.63;2.88;;;14.50;99.90;;;;;;5065240;28;20040;-56
2023/07/07 00:54:34;;;;;;;7.22;2.88;;;14.50;99.90;;;;;;5065025;28;20033;-55
2023/07/07 00:57:03;;;;;;;5.30;2.80;;;14.50;99.90;;;;;;5065448;28;20120;-55
2023/07/07 00:59:41;;;;;;;5.35;2.60;;;14.40;99.90;;;;;;5064928;28;20036;-56
2023/07/07 01:02:12;;;;;;;3.95;2.67;;;13.60;99.90;;;;;;5065072;28;20036;-55
2023/07/07 01:04:40;;;;;;;4.40;3.00;;;14.60;99.90;;;;;;5052941;28;20121;-56
2023/07/07 01:07:13;;;;;;;4.55;3.15;;;14.50;99.90;;;;;;5045272;28;20116;-56
2023/07/07 01:09:39;;;;;;;7.28;2.90;;;14.30;99.90;;;;;;5055305;28;20035;-56
2023/07/07 01:12:12;;;;;;;4.28;2.58;;;14.30;99.90;;;;;;5064884;28;20040;-56
2023/07/07 01:14:38;;;;;;;6.68;3.13;;;14.30;99.90;;;;;;5064582;28;20032;-55
2023/07/07 01:17:28;;;;;;;5.25;3.08;;;14.40;99.90;;;;;;5065771;28;20053;-56
2023/07/07 01:20:13;;;;;;;5.38;3.00;;;14.30;99.90;;;;;;5065468;28;20064;-55
2023/07/07 01:22:54;;;;;;;8.27;4.13;;;14.20;99.90;;;;;;5065093;28;20519;-55
2023/07/07 01:25:26;;;;;;;5.20;3.00;;;14.20;99.90;;;;;;5045455;28;20033;-56
2023/07/07 01:28:01;;;;;;;4.75;3.30;;;14.20;99.90;;;;;;5065700;28;20496;-56
2023/07/07 01:30:51;;;;;;;8.40;3.05;;;14.30;99.90;;;;;;5064775;28;20423;-56
2023/07/07 01:33:21;;;;;;;6.35;3.50;;;14.20;99.90;;;;;;5064837;28;20470;-56
2023/07/07 01:35:47;;;;;;;6.13;3.45;;;14.20;99.90;;;;;;5065086;28;20040;-55
2023/07/07 01:38:39;;;;;;;7.05;3.20;;;14.50;99.90;;;;;;5065451;28;20085;-55
2023/07/07 01:41:25;;;;;;;4.65;2.88;;;14.30;99.90;;;;;;5048439;28;20029;-56
2023/07/07 01:43:56;;;;;;;5.80;3.30;;;14.10;99.90;;;;;;5062442;28;20130;-56
2023/07/07 01:46:50;;;;;;;5.25;3.20;;;14.20;99.90;;;;;;5068744;28;20598;-55
2023/07/07 01:49:41;;;;;;;5.88;3.55;;;14.20;99.90;;;;;;5063656;28;20036;-56
2023/07/07 01:52:28;;;;;;;5.88;3.30;;;14.10;99.90;;;;;;5065253;28;20514;-56
2023/07/07 01:55:01;;;;;;;7.70;3.50;;;14.00;99.90;;;;;;5068424;28;20028;-56
2023/07/07 01:57:28;;;;;;;8.13;3.50;;;14.50;99.90;;;;;;5067456;28;20166;-56
2023/07/07 01:59:55;;;;;;;7.95;3.83;;;14.20;99.90;;;;;;5067770;28;20086;-56
2023/07/07 02:02:21;;;;;;;6.97;3.50;;;14.20;99.90;;;;;;5068105;28;20036;-56
2023/07/07 02:04:47;;;;;;;5.80;3.30;;;14.50;99.90;;;;;;5068264;28;20112;-56
2023/07/07 02:07:12;;;;;;;7.93;3.72;;;14.20;99.90;;;;;;5068223;28;20905;-55
2023/07/07 02:09:39;;;;;;;7.80;3.50;;;14.10;99.90;;;;;;5067484;28;20824;-55
2023/07/07 02:12:05;;;;;;;7.57;3.70;;;14.20;99.90;;;;;;5068156;28;20032;-55
2023/07/07 02:14:31;;;;;;;5.97;3.70;;;14.20;99.90;;;;;;5068258;28;20030;-56
2023/07/07 02:16:56;;;;;;;6.65;3.53;;;13.90;99.90;;;;;;5068787;28;20415;-55
2023/07/07 02:19:22;;;;;;;7.65;3.88;;;14.10;99.90;;;;;;5067828;28;20370;-55
2023/07/07 02:21:47;;;;;;;5.63;3.58;;;14.00;99.90;;;;;;5067570;28;20052;-56
2023/07/07 02:24:13;;;;;;;6.75;3.30;;;14.00;99.90;;;;;;5067745;28;20700;-56
2023/07/07 02:26:38;;;;;;;7.40;3.55;;;14.00;99.90;;;;;;5067715;28;20035;-56
2023/07/07 02:29:04;;;;;;;5.85;3.53;;;13.80;99.90;;;;;;5067562;28;20060;-56
2023/07/07 02:31:30;;;;;;;6.13;3.53;;;14.00;99.90;;;;;;5067074;28;20051;-55
2023/07/07 02:33:56;;;;;;;6.60;3.60;;;14.00;99.90;;;;;;5068167;28;20044;-55
2023/07/07 02:36:24;;;;;;;4.93;3.10;;;13.90;99.90;;;;;;5067210;28;20048;-56
2023/07/07 02:38:50;;;;;;;7.93;3.30;;;13.80;99.90;;;;;;5067770;28;20029;-56
2023/07/07 02:41:16;;;;;;;4.53;3.05;;;13.70;99.90;;;;;;5066283;28;20111;-55
2023/07/07 02:43:41;;;;;;;4.80;3.05;;;13.70;99.90;;;;;;5067890;28;20400;-55
2023/07/07 02:46:07;;;;;;;7.20;3.72;;;13.60;99.90;;;;;;5066942;28;20040;-56
2023/07/07 02:48:32;;;;;;;6.90;3.30;;;13.50;99.90;;;;;;5067786;28;20443;-58
2023/07/07 02:51:01;;;;;;;6.82;3.50;;;13.50;99.90;;;;;;5067123;28;20400;-55
2023/07/07 02:53:32;;;;;;;7.38;3.97;;;13.40;99.90;;;;;;5066618;28;20959;-55
2023/07/07 02:55:58;;;;;;;5.20;3.25;;;13.50;99.90;;;;;;5066835;28;20047;-55
2023/07/07 02:58:24;;;;;;;5.60;3.30;;;13.50;99.90;;;;;;5067204;28;20029;-56
2023/07/07 03:00:50;;;;;;;6.25;3.70;;;13.40;99.90;;;;;;5067608;28;20510;-55
2023/07/07 03:03:16;;;;;;;9.73;3.80;;;13.40;99.90;;;;;;5066576;28;20489;-55
2023/07/07 03:05:43;;;;;;;7.15;3.42;;;13.40;99.90;;;;;;5067954;28;20717;-55
2023/07/07 03:08:09;;;;;;;5.82;3.58;;;13.50;99.90;;;;;;5065482;28;20025;-60
2023/07/07 03:10:39;;;;;;;5.07;3.38;;;13.50;99.90;;;;;;5066965;28;20124;-61
2023/07/07 03:13:05;;;;;;;5.97;3.10;;;13.50;99.90;;;;;;5067006;28;20124;-60
2023/07/07 03:15:39;;;;;;;5.95;3.30;;;13.30;99.90;;;;;;5067265;28;20039;-60
2023/07/07 03:18:13;;;;;;;6.97;3.35;;;13.20;99.90;;;;;;5066195;28;20048;-60
2023/07/07 03:20:47;;;;;;;5.80;2.95;;;13.10;99.90;;;;;;5065682;28;20033;-60
2023/07/07 03:23:13;;;;;;;7.43;3.45;;;13.10;99.90;;;;;;5066715;28;20068;-60
2023/07/07 03:25:39;;;;;;;8.77;3.17;;;13.20;99.90;;;;;;5063727;28;20083;-61
2023/07/07 03:28:04;;;;;;;8.20;3.45;;;13.10;99.90;;;;;;5046647;28;20487;-60
2023/07/07 03:30:30;;;;;;;4.90;3.15;;;13.20;99.90;;;;;;5050128;28;20454;-61
2023/07/07 03:32:56;;;;;;;7.82;3.40;;;13.10;99.90;;;;;;5066908;28;20040;-60
2023/07/07 03:35:22;;;;;;;6.70;4.05;;;13.10;99.90;;;;;;5066177;28;20052;-60
2023/07/07 03:37:48;;;;;;;5.40;3.47;;;13.20;99.90;;;;;;5053225;28;20452;-60
2023/07/07 03:40:13;;;;;;;6.38;3.60;;;13.30;99.90;;;;;;5061000;28;20036;-61
2023/07/07 03:42:39;;;;;;;6.97;3.80;;;13.40;99.90;;;;;;5066968;28;20442;-60
2023/07/07 03:45:05;;;;;;;7.20;3.33;;;13.30;99.90;;;;;;5065779;28;20251;-60
2023/07/07 03:47:31;;;;;;;5.50;3.50;;;13.20;99.90;;;;;;5052808;28;20055;-60
2023/07/07 03:49:57;;;;;;;5.82;3.10;;;13.20;99.90;;;;;;5066695;28;20036;-61
2023/07/07 03:52:22;;;;;;;8.73;3.63;;;13.30;99.90;;;;;;5065765;28;20052;-60
2023/07/07 03:54:48;;;;;;;5.97;3.30;;;13.20;99.90;;;;;;5065654;28;20404;-60
2023/07/07 03:57:13;;;;;;;5.97;3.60;;;13.40;99.90;;;;;;5065128;28;20063;-60
2023/07/07 03:59:39;;;;;;;7.75;3.88;;;13.30;99.90;;;;;;5053684;28;20040;-60
2023/07/07 04:02:05;;;;;;;6.57;3.53;;;13.40;99.90;;;;;;5060742;28;20081;-60
2023/07/07 04:04:31;;;;;;;6.63;3.60;;;13.30;99.90;;;;;;5066209;28;20450;-60
2023/07/07 04:06:57;;;;;;;6.18;3.67;;;13.20;99.90;;;;;;5066140;28;20032;-60
2023/07/07 04:09:23;;;;;;;4.85;3.33;;;13.20;99.90;;;;;;5065310;28;20032;-60
2023/07/07 04:11:49;;;;;;;5.95;3.53;;;13.30;99.90;;;;;;5065753;28;20085;-60
2023/07/07 04:14:15;;;;;;;5.57;3.33;;;13.50;99.90;;;;;;5065557;28;20047;-60
2023/07/07 04:16:41;;;;;;;9.32;3.70;;;13.40;99.90;;;;;;5066894;28;20307;-61
2023/07/07 04:19:07;;;;;;;7.75;3.65;;;13.40;99.90;;;;;;5065383;28;20119;-60
2023/07/07 04:21:34;;;;;;;7.03;3.92;;;13.30;99.90;;;;;;5053016;28;20416;-61
2023/07/07 04:24:00;;;;;;;6.78;3.90;;;13.40;99.90;;;;;;5046433;28;20036;-60
2023/07/07 04:26:28;;;;;;;6.72;3.45;;;13.40;99.90;;;;;;5045428;28;20037;-60
2023/07/07 04:28:54;;;;;;;6.63;3.50;;;13.40;99.90;;;;;;5046047;28;20033;-61
2023/07/07 04:31:23;;;;;;;7.22;3.72;;;13.40;99.90;;;;;;5053556;28;20500;-61
2023/07/07 04:33:49;;;;;;;6.88;3.80;;;13.40;99.90;;;;;;5046113;28;20115;-61
2023/07/07 04:36:16;;;;;;;9.07;4.15;;;13.40;99.90;;;;;;5045221;28;20389;-60
2023/07/07 04:38:42;;;;;;;5.00;3.70;;;13.50;99.90;;;;;;5048353;28;20681;-60
2023/07/07 04:41:17;;;;;;;8.48;3.80;;;13.60;99.90;;;;;;5065213;28;20035;-60
2023/07/07 04:43:48;;;;;;;8.85;4.18;;;13.60;99.90;;;;;;5064974;28;20396;-61
2023/07/07 04:46:19;;;;;;;9.10;4.35;;;13.70;99.90;;;;;;5065277;28;20028;-60
2023/07/07 04:48:45;;;;;;;9.10;4.65;;;13.80;99.90;;;;;;5064338;28;20489;-60
2023/07/07 04:51:11;;;;;;;9.80;4.72;;;13.90;99.90;;;;;;5065494;28;20028;-61
2023/07/07 04:53:38;;;;;;;10.00;4.72;;;14.00;99.90;;;;;;5065030;28;20480;-61
2023/07/07 04:56:12;;;;;;;11.07;4.88;;;14.00;99.90;;;;;;5063918;28;20268;-60
2023/07/07 04:58:39;;;;;;;8.50;4.38;;;14.20;99.90;;;;;;5066042;28;20496;-61
2023/07/07 05:01:17;;;;;;;6.95;4.28;;;14.20;99.90;;;;;;5065360;28;20147;-60
2023/07/07 05:03:44;;;;;;;10.48;4.50;;;14.30;99.90;;;;;;5065379;28;20039;-60
2023/07/07 05:06:11;;;;;;;10.90;4.63;;;14.60;99.90;;;;;;5048064;28;20057;-60
2023/07/07 05:08:39;;;;;;;9.90;4.28;;;14.70;99.90;;;;;;5047117;28;20036;-61
2023/07/07 05:11:06;;;;;;;8.52;4.70;;;14.90;99.90;;;;;;5064618;28;20511;-60
2023/07/07 05:13:32;;;;;;;7.75;4.40;;;15.10;99.90;;;;;;5067840;28;20029;-61
2023/07/07 05:16:03;;;;;;;7.55;4.53;;;15.30;99.90;;;;;;5069559;28;20142;-60
2023/07/07 05:18:29;;;;;;;7.90;4.93;;;15.50;99.90;;;;;;5068408;28;20116;-60
2023/07/07 05:20:55;;;;;;;9.50;5.03;;;15.60;99.90;;;;;;5069509;28;20056;-61
2023/07/07 05:23:21;;;;;;;8.50;4.53;;;15.50;99.90;;;;;;5068978;28;20119;-61
2023/07/07 05:25:46;;;;;;;7.05;4.78;;;15.60;99.90;;;;;;5068924;28;20032;-61
2023/07/07 05:28:12;;;;;;;7.43;4.32;;;15.70;99.90;;;;;;5068111;28;20032;-60
2023/07/07 05:30:41;;;;;;;12.05;4.35;;;15.90;99.90;;;;;;5069153;28;20028;-60
2023/07/07 05:33:07;;;;;;;9.25;4.30;;;16.00;99.90;;;;;;5068341;28;20040;-60
2023/07/07 05:35:32;;;;;;;6.65;4.10;;;16.00;99.90;;;;;;5068692;28;20044;-60
2023/07/07 05:38:00;;;;;;;7.05;4.25;;;16.20;99.90;;;;;;5062710;28;20052;-61
2023/07/07 05:40:26;;;;;;;7.90;4.88;;;16.30;99.90;;;;;;5064723;28;20028;-61
2023/07/07 05:42:52;;;;;;;7.68;4.13;;;16.40;99.90;;;;;;5068852;28;20051;-60
2023/07/07 05:45:17;;;;;;;7.35;4.20;;;16.70;99.90;;;;;;5067899;28;20424;-60
2023/07/07 05:47:43;;;;;;;8.15;4.28;;;16.60;99.90;;;;;;5059147;28;20118;-60
2023/07/07 05:50:09;;;;;;;8.35;4.03;;;16.80;99.90;;;;;;5064550;28;20047;-62
2023/07/07 05:52:34;;;;;;;7.47;4.07;;;16.80;99.90;;;;;;5067298;28;20037;-60
2023/07/07 05:55:02;;;;;;;6.68;3.45;;;17.10;99.90;;;;;;5068856;28;20115;-60
2023/07/07 05:57:28;;;;;;;6.57;4.03;;;17.10;99.90;;;;;;5067775;28;20506;-61
2023/07/07 05:59:54;;;;;;;9.20;3.60;;;17.20;99.90;;;;;;5062048;28;20033;-61
2023/07/07 06:02:20;;;;;;;5.28;3.03;;;17.30;99.90;;;;;;5066334;28;20056;-60
2023/07/07 06:04:45;;;;;;;8.25;3.25;;;17.40;99.90;;;;;;5068088;28;20119;-61
2023/07/07 06:07:11;;;;;;;6.25;3.13;;;17.60;99.90;;;;;;5068407;28;20412;-55
2023/07/07 06:09:36;;;;;;;6.13;2.85;;;17.70;99.90;;;;;;5068470;28;20095;-55
2023/07/07 06:12:02;;;;;;;5.20;2.90;;;17.80;99.90;;;;;;5067031;28;20524;-56
2023/07/07 06:14:28;;;;;;;4.90;2.45;;;17.90;99.90;;;;;;5068205;28;20504;-56
2023/07/07 06:16:53;;;;;;;8.95;2.58;;;17.90;99.90;;;;;;5068972;28;20044;-55
2023/07/07 06:19:19;;;;;;;6.13;2.95;;;18.10;99.90;;;;;;5068117;28;20443;-55
2023/07/07 06:21:45;;;;;;;5.88;2.78;;;18.10;99.90;;;;;;5067581;28;20040;-55
2023/07/07 06:24:10;;;;;;;6.65;2.80;;;18.20;99.90;;;;;;5067132;28;20084;-55
2023/07/07 06:26:36;;;;;;;6.10;2.75;;;18.30;99.90;;;;;;5067226;28;20484;-55
2023/07/07 06:29:01;;;;;;;6.68;3.00;;;18.30;99.90;;;;;;5068007;28;20036;-56
2023/07/07 06:31:27;;;;;;;5.22;2.70;;;18.40;99.90;;;;;;5068178;28;20040;-55
2023/07/07 06:33:52;;;;;;;8.85;3.50;;;18.50;99.90;;;;;;5067489;28;20033;-55
2023/07/07 06:36:18;;;;;;;7.85;2.80;;;18.50;99.90;;;;;;5067537;28;20055;-55
2023/07/07 06:38:44;;;;;;;7.32;2.63;;;18.60;99.90;;;;;;5067557;28;20097;-56
2023/07/07 06:41:15;;;;;;;7.47;2.97;;;18.80;99.90;;;;;;5067463;28;20115;-55
2023/07/07 06:43:41;;;;;;;7.07;2.95;;;18.70;99.90;;;;;;5067184;28;20601;-55
2023/07/07 06:46:08;;;;;;;5.75;3.15;;;18.80;99.90;;;;;;5068247;28;20032;-56
2023/07/07 06:48:34;;;;;;;5.95;2.53;;;19.00;99.90;;;;;;5067915;28;20051;-55
2023/07/07 06:50:59;;;;;;;5.65;2.58;;;19.00;99.90;;;;;;5067846;28;20056;-55
2023/07/07 06:53:25;;;;;;;8.90;2.83;;;19.10;99.90;;;;;;5067327;28;20432;-55
2023/07/07 06:55:51;;;;;;;8.13;2.90;;;19.10;99.90;;;;;;5066118;28;20068;-55
2023/07/07 06:58:17;;;;;;;7.10;2.65;;;19.20;99.90;;;;;;5067040;28;20536;-55
2023/07/07 07:00:43;;;;;;;4.25;2.65;;;19.30;99.90;;;;;;5067508;28;20025;-56
2023/07/07 07:03:09;;;;;;;5.05;2.45;;;19.40;99.90;;;;;;5067436;28;20033;-55
2023/07/07 07:05:34;;;;;;;8.95;2.72;;;19.60;99.90;;;;;;5066224;28;20040;-56
2023/07/07 07:08:00;;;;;;;4.47;2.53;;;19.60;99.90;;;;;;5067162;28;20044;-60
2023/07/07 07:10:25;;;;;;;4.93;2.50;;;19.70;99.90;;;;;;5066886;28;20056;-60
2023/07/07 07:12:51;;;;;;;4.60;2.30;;;19.70;99.90;;;;;;5067234;28;20068;-60
2023/07/07 07:15:16;;;;;;;6.45;2.60;;;19.90;99.90;;;;;;5067797;28;20032;-60
2023/07/07 07:17:42;;;;;;;3.78;2.33;;;20.00;99.90;;;;;;5065954;28;20404;-61
2023/07/07 07:20:10;;;;;;;8.88;2.70;;;20.10;99.90;;;;;;5066658;28;20059;-60
2023/07/07 07:22:36;;;;;;;3.17;2.22;;;20.20;99.90;;;;;;5067027;28;20024;-60
2023/07/07 07:25:02;;;;;;;4.60;2.17;;;20.30;99.90;;;;;;5066207;28;20035;-60
2023/07/07 07:27:27;;;;;;;4.15;1.88;;;20.40;99.90;;;;;;5066196;28;20036;-60
2023/07/07 07:29:53;;;;;;;7.32;2.22;;;20.40;99.90;;;;;;5067090;28;20036;-61
2023/07/07 07:32:18;;;;;;;6.55;2.50;;;20.50;99.90;;;;;;5066814;28;20040;-61
2023/07/07 07:34:44;;;;;;;2.80;1.92;;;20.60;99.90;;;;;;5066477;28;20094;-61
2023/07/07 07:37:10;;;;;;;6.47;1.98;;;20.60;99.90;;;;;;5066014;28;20032;-60
2023/07/07 07:39:36;;;;;;;4.43;1.92;;;20.70;99.90;;;;;;5066088;28;20520;-61
2023/07/07 07:42:03;;;;;;;8.60;2.03;;;20.80;99.90;;;;;;5066404;28;20028;-59
2023/07/07 07:44:29;;;;;;;4.57;1.95;;;21.00;99.90;;;;;;5066788;28;20553;-61
2023/07/07 07:46:56;;;;;;;3.25;1.77;;;21.20;99.90;;;;;;5062816;28;20397;-61
2023/07/07 07:49:26;;;;;;;5.00;2.28;;;21.30;99.90;;;;;;5047771;28;20052;-60
2023/07/07 07:51:52;;;;;;;3.75;1.90;;;21.70;99.90;;;;;;5066581;28;20033;-61
2023/07/07 07:54:20;;;;;;;3.40;1.85;;;21.80;99.90;;;;;;5066480;28;20392;-60
2023/07/07 07:56:46;;;;;;;5.35;1.95;;;21.50;99.90;;;;;;5065709;28;20036;-61
2023/07/07 07:59:12;;;;;;;5.28;1.60;;;21.60;99.90;;;;;;5066251;28;20032;-60
2023/07/07 08:01:37;;;;;;;4.43;1.90;;;22.10;99.90;;;;;;5054320;28;20120;-62
2023/07/07 08:04:04;;;;;;;2.75;1.77;;;;;;;;;;5045666;28;20029;-60
2023/07/07 08:06:30;;;;;;;4.35;1.45;;;21.90;99.90;;;;;;5045756;28;20033;-60
2023/07/07 08:08:56;;;;;;;4.65;1.52;;;22.00;99.90;;;;;;5050318;28;20119;-60
2023/07/07 08:11:40;;;;;;;4.35;1.85;;;22.10;99.90;;;;;;5064910;28;20119;-60
2023/07/07 08:14:14;;;;;;;4.63;1.60;;;22.10;99.90;;;;;;5065790;28;20032;-60
2023/07/07 08:16:40;;;;;;;4.20;1.50;;;22.10;99.90;;;;;;5066682;28;20075;-60
2023/07/07 08:19:06;;;;;;;5.45;1.55;;;22.50;99.90;;;;;;5065973;28;20457;-62
2023/07/07 08:21:31;;;;;;;4.18;1.40;;;22.40;99.90;;;;;;5065912;28;20031;-61
2023/07/07 08:23:57;;;;;;;4.03;1.48;;;22.50;99.90;;;;;;5065865;28;20028;-61
2023/07/07 08:26:23;;;;;;;4.53;1.70;;;22.60;99.90;;;;;;5064794;28;20032;-62
2023/07/07 08:28:48;;;;;;;3.22;1.60;;;22.80;99.90;;;;;;5065952;28;20037;-60
2023/07/07 08:31:14;;;;;;;5.93;1.73;;;22.80;99.90;;;;;;5065658;28;20034;-60
2023/07/07 08:33:43;;;;;;;4.63;1.50;;;22.80;99.90;;;;;;5065298;28;20401;-62
2023/07/07 08:36:09;;;;;;;5.65;1.70;;;22.90;99.90;;;;;;5064968;28;20225;-62
2023/07/07 08:38:35;;;;;;;3.95;1.70;;;23.10;99.90;;;;;;5065404;28;20024;-62
2023/07/07 08:41:01;;;;;;;11.75;2.00;;;23.00;99.90;;;;;;5065823;28;20608;-62
2023/07/07 08:43:29;;;;;;;4.50;1.63;;;23.20;99.90;;;;;;5065611;28;20032;-61
2023/07/07 08:45:58;;;;;;;4.03;1.70;;;;;;;;;;5066051;28;20037;-61
2023/07/07 08:48:39;;;;;;;4.25;1.58;;;23.40;99.90;;;;;;5064952;28;20035;-61
2023/07/07 08:51:09;;;;;;;4.47;2.00;;;23.50;99.90;;;;;;5065427;28;20036;-61
2023/07/07 08:54:00;;;;;;;6.75;1.85;;;23.60;99.90;;;;;;5065633;28;20028;-61
2023/07/07 08:56:33;;;;;;;6.97;2.00;;;;;;;;;;5062617;28;20370;-62
2023/07/07 08:59:21;;;;;;;3.97;1.80;;;23.70;99.90;;;;;;5065807;28;20056;-62
2023/07/07 09:02:11;;;;;;;8.38;1.55;;;23.90;99.90;;;;;;5065380;28;20381;-62
2023/07/07 09:04:46;;;;;;;4.82;1.60;;;23.80;99.90;;;;;;5065385;28;20188;-61
2023/07/07 09:07:22;;;;;;;5.20;1.98;;;;;;;;;;5064377;28;20378;-61
2023/07/07 09:10:19;;;;;;;4.45;1.42;;;23.80;99.90;;;;;;5065484;28;20033;-61
2023/07/07 09:12:49;;;;;;;3.20;1.88;;;23.90;99.90;;;;;;5065464;28;20047;-62
2023/07/07 09:15:19;;;;;;;4.75;1.73;;;;;;;;;;5066413;28;20070;-61
2023/07/07 09:17:50;;;;;;;2.20;1.45;;;24.30;99.90;;;;;;5064552;28;20072;-62
2023/07/07 09:20:19;;;;;;;3.42;1.48;;;24.30;99.90;;;;;;5064868;28;20055;-61
2023/07/07 09:22:47;;;;;;;4.68;1.60;;;;;;;;;;5065598;28;20036;-62
2023/07/07 09:25:20;;;;;;;3.88;1.42;;;;;;;;;;5064563;28;20154;-61
2023/07/07 09:27:57;;;;;;;2.85;1.77;;;24.30;99.90;;;;;;5064789;28;20110;-63
2023/07/07 09:30:35;;;;;;;6.05;1.42;;;24.50;99.90;;;;;;5064281;28;20033;-61
2023/07/07 09:33:01;;;;;;;2.60;1.60;;;24.60;99.90;;;;;;5065191;28;20036;-62
2023/07/07 09:35:31;;;;;;;1.83;1.30;;;;;;;;;;5064466;28;20050;-62
2023/07/07 09:38:35;;;;;;;2.83;1.60;;;24.30;99.90;;;;;;5065367;28;20098;-62
2023/07/07 09:41:22;;;;;;;2.90;1.73;;;;;;;;;;5059732;28;20059;-62
2023/07/07 09:44:00;;;;;;;3.78;1.50;;;;;;;;;;5043618;28;20658;-61
2023/07/07 09:46:55;;;;;;;5.32;1.63;;;;;;;;;;5064677;28;20033;-61
2023/07/07 09:49:32;;;;;;;3.53;1.50;;;24.90;99.90;;;;;;5053364;28;22682;-61
2023/07/07 09:52:21;;;;;;;4.57;1.70;;;25.00;99.90;;;;;;5050356;28;20041;-62
2023/07/07 09:54:48;;;;;;;3.95;1.70;;;25.00;99.90;;;;;;5043407;28;20041;-62
2023/07/07 09:57:20;;;;;;;4.00;1.70;;;25.20;99.50;;;;;;5060275;28;20047;-62
2023/07/07 09:59:47;;;;;;;3.10;1.40;;;25.10;97.10;;;;;;5065810;28;20044;-62
2023/07/07 10:02:21;;;;;;;3.20;2.13;;;25.20;99.10;;;;;;5059526;28;20071;-61
2023/07/07 10:04:52;;;;;;;4.07;1.67;;;25.30;96.90;;;;;;5048638;28;20440;-62
2023/07/07 10:07:19;;;;;;;4.72;1.80;;;25.40;90.80;;;;;;5047983;28;20374;-61
2023/07/07 10:09:44;;;;;;;3.17;1.70;;;25.40;91.60;;;;;;5059257;28;20043;-61
2023/07/07 10:12:16;;;;;;;3.30;1.63;;;25.40;95.10;;;;;;5067725;28;20120;-61
2023/07/07 10:14:42;;;;;;;5.22;2.00;;;25.60;93.40;;;;;;5048206;28;20089;-62
2023/07/07 10:17:08;;;;;;;4.55;2.15;;;25.50;94.90;;;;;;5067169;28;20434;-61
2023/07/07 10:19:40;;;;;;;7.50;2.20;;;25.50;92.60;;;;;;5068424;28;20055;-61
2023/07/07 10:22:13;;;;;;;3.33;1.73;;;25.50;94.80;;;;;;5068039;28;20033;-61
2023/07/07 10:24:38;;;;;;;4.90;2.03;;;25.50;94.20;;;;;;5067323;28;20530;-62
2023/07/07 10:27:05;;;;;;;3.55;2.13;;;25.60;95.60;;;;;;5067278;28;20123;-61
2023/07/07 10:29:39;;;;;;;3.67;2.05;;;25.70;92.40;;;;;;5068175;28;20025;-61
2023/07/07 10:32:05;;;;;;;3.10;2.00;;;25.80;91.30;;;;;;5067760;28;20052;-60
2023/07/07 10:34:35;;;;;;;3.90;1.83;;;25.80;87.00;;;;;;5067688;28;20048;-62
2023/07/07 10:37:01;;;;;;;4.63;2.13;;;25.80;90.90;;;;;;5068007;28;20040;-62
2023/07/07 10:39:31;;;;;;;4.20;2.10;;;25.90;91.30;;;;;;5067793;28;20085;-62
2023/07/07 10:41:57;;;;;;;2.70;1.90;;;25.90;92.10;;;;;;5067507;28;20024;-62
2023/07/07 10:44:24;;;;;;;5.20;2.13;;;25.90;89.90;;;;;;5067833;28;20043;-61
2023/07/07 10:46:50;;;;;;;5.70;2.20;;;26.00;87.20;;;;;;5065161;28;20042;-61
2023/07/07 10:49:18;;;;;;;3.55;2.17;;;26.00;86.80;;;;;;5048095;28;20327;-62
2023/07/07 10:52:07;;;;;;;4.75;2.00;;;25.90;90.80;;;;;;5067840;28;20550;-62
2023/07/07 10:54:45;;;;;;;5.32;1.90;;;25.90;85.60;;;;;;5067272;28;20564;-61
2023/07/07 10:57:43;;;;;;;4.75;2.30;;;25.90;90.30;;;;;;5058553;28;20064;-61
2023/07/07 11:00:22;;;;;;;4.13;1.80;;;25.90;80.30;;;;;;5047503;28;20025;-61
2023/07/07 11:03:20;;;;;;;4.18;2.08;;;25.90;84.70;;;;;;5067767;28;20075;-62
2023/07/07 11:06:11;;;;;;;5.10;2.00;;;26.10;86.50;;;;;;5067629;28;20162;-62
2023/07/07 11:09:01;;;;;;;4.30;2.25;;;26.10;85.60;;;;;;5056031;28;20029;-62
2023/07/07 11:11:53;;;;;;;4.75;2.47;;;26.10;86.10;;;;;;5066616;28;21144;-61
2023/07/07 11:14:34;;;;;;;3.30;2.10;;;26.00;80.30;;;;;;5066879;28;20103;-61
2023/07/07 11:17:11;;;;;;;3.80;2.20;;;26.10;90.80;;;;;;5068088;28;20045;-61
2023/07/07 11:19:43;;;;;;;4.40;2.13;;;26.20;76.20;;;;;;5066457;28;20036;-61
2023/07/07 11:22:41;;;;;;;5.15;2.22;;;26.10;82.70;;;;;;5066964;28;20032;-60
2023/07/07 11:25:20;;;;;;;4.38;2.28;;;26.30;86.90;;;;;;5066784;28;20029;-60
2023/07/07 11:28:19;;;;;;;2.85;2.00;;;26.30;86.50;;;;;;5066918;28;20021;-61
2023/07/07 11:30:54;;;;;;;3.55;2.00;;;26.40;88.90;;;;;;5058242;28;20121;-62
2023/07/07 11:33:58;;;;;;;5.00;2.38;;;26.50;85.30;;;;;;5064753;28;20043;-61
2023/07/07 11:36:42;;;;;;;3.03;2.03;;;26.40;85.90;;;;;;5046711;28;20616;-61
2023/07/07 11:39:34;;;;;;;3.78;2.10;;;26.40;87.20;;;;;;5052110;28;20037;-61
2023/07/07 11:42:39;;;;;;;3.20;2.15;;;26.50;91.40;;;;;;5065967;28;20276;-61
2023/07/07 11:45:36;;;;;;;3.55;2.20;;;26.50;85.10;;;;;;5047981;28;20504;-61
2023/07/07 11:48:13;;;;;;;3.97;2.10;;;26.40;87.20;;;;;;5057395;28;20028;-61
2023/07/07 11:50:39;;;;;;;3.50;2.20;;;26.30;84.40;;;;;;5066959;28;20028;-61
2023/07/07 11:53:22;;;;;;;2.63;2.20;;;26.40;86.00;;;;;;5062753;28;20376;-60
2023/07/07 11:56:15;;;;;;;3.97;2.30;;;26.40;88.80;;;;;;5066279;28;20045;-61
2023/07/07 11:59:01;;;;;;;3.15;2.35;;;26.50;82.90;;;;;;5066566;28;20040;-62
2023/07/07 12:01:36;;;;;;;3.80;2.17;;;26.40;80.70;;;;;;5066422;28;20131;-61
2023/07/07 12:04:23;;;;;;;3.03;2.10;;;26.50;84.20;;;;;;5050690;28;20063;-60
2023/07/07 12:07:01;;;;;;;4.47;1.98;;;26.60;85.50;;;;;;5046644;28;20056;-61
2023/07/07 12:09:48;;;;;;;6.18;2.08;;;26.70;90.00;;;;;;5054782;28;20029;-61
2023/07/07 12:12:38;;;;;;;3.67;2.10;;;26.80;72.60;;;;;;5065635;28;20024;-61
2023/07/07 12:15:18;;;;;;;5.20;2.22;;;26.90;67.80;;;;;;5065592;28;20484;-60
2023/07/07 12:17:50;;;;;;;3.50;2.20;;;26.90;65.60;;;;;;5055385;28;20467;-61
2023/07/07 12:20:22;;;;;;;5.43;2.33;;;26.80;66.70;;;;;;5065597;28;20035;-62
2023/07/07 12:22:48;;;;;;;2.97;2.10;;;26.70;73.50;;;;;;5065709;28;20028;-61
2023/07/07 12:25:24;;;;;;;4.60;2.38;;;26.70;71.80;;;;;;5065045;28;20446;-60
2023/07/07 12:27:52;;;;;;;2.72;2.13;;;26.70;65.30;;;;;;5065988;28;20071;-60
2023/07/07 12:30:25;;;;;;;3.65;2.17;;;26.50;63.10;;;;;;5065818;28;20041;-60
2023/07/07 12:32:52;;;;;;;3.15;2.10;;;26.40;70.10;;;;;;5064708;28;20488;-62
2023/07/07 12:35:27;;;;;;;5.50;2.30;;;26.50;64.90;;;;;;5063837;28;20056;-61
2023/07/07 12:37:55;;;;;;;4.97;2.50;;;26.40;66.90;;;;;;5045657;28;20037;-62
2023/07/07 12:40:21;;;;;;;5.40;2.17;;;26.50;63.00;;;;;;5061413;28;20037;-62
2023/07/07 12:43:05;;;;;;;4.00;1.90;;;26.50;65.40;;;;;;5065674;28;20515;-61
2023/07/07 12:45:32;;;;;;;3.33;2.10;;;26.40;63.70;;;;;;5065045;28;20031;-61
2023/07/07 12:48:14;;;;;;;4.35;2.38;;;26.50;65.00;;;;;;5054001;28;20044;-62
2023/07/07 12:50:44;;;;;;;4.32;2.10;;;26.60;64.20;;;;;;5058414;28;20036;-61
2023/07/07 12:53:24;;;;;;;6.43;2.35;;;26.60;61.30;;;;;;5065380;28;20060;-60
2023/07/07 12:55:58;;;;;;;6.38;2.20;;;26.70;62.10;;;;;;5065306;28;20024;-61
2023/07/07 12:58:33;;;;;;;3.78;2.20;;;26.70;65.60;;;;;;5054422;28;20480;-62
2023/07/07 13:01:23;;;;;;;4.07;2.13;;;26.70;63.60;;;;;;5052286;28;20071;-61
2023/07/07 13:04:07;;;;;;;3.80;1.80;;;26.90;61.00;;;;;;5065624;28;20029;-61
2023/07/07 13:06:39;;;;;;;2.72;2.10;;;26.80;57.60;;;;;;5064525;28;20094;-61
2023/07/07 13:09:16;;;;;;;3.05;2.20;;;26.50;60.40;;;;;;5063239;28;20036;-60